Burnham-on-Sea, United Kingdom
Current Conditions -  °F | °C
As of 1:50 PM on Saturday 01 Nov 2014 (Local Time) from EGGD Reporting Station
Scattered Clouds Scattered Clouds  
Wind Chill: 57°   Ceiling: Unl
Heat Index: 57°   Visibility: 6mi
Dew Point: 46°   Wind: 15mph
Humidity: 67%   Direction: 200°SSW
Pressure: 29.94"   Gusts: NA
Location:  51.23°N, 3°W
Report Text: EGGD 011350Z 20013KT 9999 FEW024 SCT032 14/08 Q1014
Loading
Personal Weather Stations






























Interactive Weather Map New forecast layout! Learn more

10-Day Weather Forecast

Advertisements
Track Severe Weather on mobile